sensor_id;sensor_type;location;lat;lon;timestamp;pressure;altitude;pressure_sealevel;temperature;humidity
54407;BME280;40313;50.308;30.374;2024-03-08T00:00:36;100275.13;;;0.19;91.58
54407;BME280;40313;50.308;30.374;2024-03-08T00:03:04;100283.66;;;0.20;91.44
54407;BME280;40313;50.308;30.374;2024-03-08T00:05:30;100282.78;;;0.28;91.31
54407;BME280;40313;50.308;30.374;2024-03-08T00:07:57;100282.78;;;0.27;90.98
54407;BME280;40313;50.308;30.374;2024-03-08T00:10:25;100233.31;;;-0.06;91.79
54407;BME280;40313;50.308;30.374;2024-03-08T00:12:55;100253.78;;;0.09;93.38
54407;BME280;40313;50.308;30.374;2024-03-08T00:15:23;100245.25;;;0.10;93.74
54407;BME280;40313;50.308;30.374;2024-03-08T00:17:49;100264.88;;;0.17;91.64
54407;BME280;40313;50.308;30.374;2024-03-08T00:20:16;100280.19;;;0.36;91.02
54407;BME280;40313;50.308;30.374;2024-03-08T00:22:44;100269.97;;;0.25;90.67
54407;BME280;40313;50.308;30.374;2024-03-08T00:25:11;100285.34;;;0.36;90.17
54407;BME280;40313;50.308;30.374;2024-03-08T00:27:38;100277.63;;;0.31;90.54
54407;BME280;40313;50.308;30.374;2024-03-08T00:30:07;100259.75;;;0.10;90.81
54407;BME280;40313;50.308;30.374;2024-03-08T00:32:33;100286.22;;;0.23;91.28
54407;BME280;40313;50.308;30.374;2024-03-08T00:35:01;100249.47;;;0.11;90.98
54407;BME280;40313;50.308;30.374;2024-03-08T00:37:27;100271.72;;;0.22;90.31
54407;BME280;40313;50.308;30.374;2024-03-08T00:39:54;100274.28;;;0.22;89.08
54407;BME280;40313;50.308;30.374;2024-03-08T00:42:21;100268.28;;;0.20;89.33
54407;BME280;40313;50.308;30.374;2024-03-08T00:44:49;100253.78;;;0.06;89.29
54407;BME280;40313;50.308;30.374;2024-03-08T00:47:17;100248.69;;;-0.05;90.01
54407;BME280;40313;50.308;30.374;2024-03-08T00:49:44;100265.72;;;0.15;90.51
54407;BME280;40313;50.308;30.374;2024-03-08T00:52:11;100244.44;;;-0.09;90.32
54407;BME280;40313;50.308;30.374;2024-03-08T00:54:38;100259.75;;;0.08;91.44
54407;BME280;40313;50.308;30.374;2024-03-08T00:57:05;100268.34;;;0.07;90.51
54407;BME280;40313;50.308;30.374;2024-03-08T00:59:31;100267.44;;;0.10;90.27
54407;BME280;40313;50.308;30.374;2024-03-08T01:01:58;100258.91;;;0.09;90.74
54407;BME280;40313;50.308;30.374;2024-03-08T01:04:27;100207.75;;;-0.34;90.64
54407;BME280;40313;50.308;30.374;2024-03-08T01:06:54;100254.69;;;-0.01;90.83
54407;BME280;40313;50.308;30.374;2024-03-08T01:09:21;100265.75;;;0.03;91.99
54407;BME280;40313;50.308;30.374;2024-03-08T01:11:48;100246.97;;;0.04;91.92
54407;BME280;40313;50.308;30.374;2024-03-08T01:14:14;100249.53;;;0.04;91.02
54407;BME280;40313;50.308;30.374;2024-03-08T01:16:41;100223.09;;;-0.12;91.28
54407;BME280;40313;50.308;30.374;2024-03-08T01:19:07;100252.09;;;0.02;91.40
54407;BME280;40313;50.308;30.374;2024-03-08T01:21:35;100227.34;;;-0.16;91.14
54407;BME280;40313;50.308;30.374;2024-03-08T01:24:02;100219.66;;;-0.19;91.06
54407;BME280;40313;50.308;30.374;2024-03-08T01:26:29;100238.41;;;-0.03;91.65
54407;BME280;40313;50.308;30.374;2024-03-08T01:28:55;100244.44;;;-0.04;92.17
54407;BME280;40313;50.308;30.374;2024-03-08T01:31:22;100223.06;;;-0.09;91.38
54407;BME280;40313;50.308;30.374;2024-03-08T01:33:49;100238.41;;;-0.02;91.58
54407;BME280;40313;50.308;30.374;2024-03-08T01:36:15;100186.38;;;-0.33;91.73
54407;BME280;40313;50.308;30.374;2024-03-08T01:38:45;100199.19;;;-0.28;91.64
54407;BME280;40313;50.308;30.374;2024-03-08T01:41:12;100220.50;;;-0.09;92.12
54407;BME280;40313;50.308;30.374;2024-03-08T01:43:39;100227.31;;;-0.04;92.22
54407;BME280;40313;50.308;30.374;2024-03-08T01:46:07;100200.03;;;-0.19;91.51
54407;BME280;40313;50.308;30.374;2024-03-08T01:48:38;100194.03;;;-0.18;92.48
54407;BME280;40313;50.308;30.374;2024-03-08T01:51:06;100211.94;;;-0.05;92.79
54407;BME280;40313;50.308;30.374;2024-03-08T01:53:33;100183.78;;;-0.19;91.80
54407;BME280;40313;50.308;30.374;2024-03-08T01:56:02;100209.38;;;-0.02;91.66
54407;BME280;40313;50.308;30.374;2024-03-08T01:58:29;100171.00;;;-0.30;91.27
54407;BME280;40313;50.308;30.374;2024-03-08T02:00:58;100204.25;;;-0.07;91.11
54407;BME280;40313;50.308;30.374;2024-03-08T02:03:26;100212.75;;;-0.02;92.29
54407;BME280;40313;50.308;30.374;2024-03-08T02:05:53;100185.50;;;-0.23;95.74
54407;BME280;40313;50.308;30.374;2024-03-08T02:08:20;100187.16;;;-0.08;95.40
54407;BME280;40313;50.308;30.374;2024-03-08T02:10:48;100210.16;;;0.11;95.00
54407;BME280;40313;50.308;30.374;2024-03-08T02:13:16;100172.63;;;-0.04;95.86
54407;BME280;40313;50.308;30.374;2024-03-08T02:15:50;100203.34;;;0.13;95.13
54407;BME280;40313;50.308;30.374;2024-03-08T02:18:16;100218.69;;;0.17;95.26
54407;BME280;40313;50.308;30.374;2024-03-08T02:20:45;100209.28;;;0.18;97.53
54407;BME280;40313;50.308;30.374;2024-03-08T02:23:12;100187.06;;;0.11;95.37
54407;BME280;40313;50.308;30.374;2024-03-08T02:25:40;100173.41;;;0.04;95.72
54407;BME280;40313;50.308;30.374;2024-03-08T02:28:07;100211.88;;;0.10;97.41
54407;BME280;40313;50.308;30.374;2024-03-08T02:30:35;100186.16;;;0.20;94.85
54407;BME280;40313;50.308;30.374;2024-03-08T02:33:01;100206.66;;;0.29;92.95
54407;BME280;40313;50.308;30.374;2024-03-08T02:35:29;100187.03;;;0.19;92.21
54407;BME280;40313;50.308;30.374;2024-03-08T02:37:57;100204.09;;;0.24;92.01
54407;BME280;40313;50.308;30.374;2024-03-08T02:40:23;100198.97;;;0.24;92.89
54407;BME280;40313;50.308;30.374;2024-03-08T02:42:50;100176.00;;;-0.02;93.96
54407;BME280;40313;50.308;30.374;2024-03-08T02:45:17;100194.72;;;0.25;94.66
54407;BME280;40313;50.308;30.374;2024-03-08T02:47:43;100178.47;;;0.21;94.19
54407;BME280;40313;50.308;30.374;2024-03-08T02:50:10;100146.91;;;0.04;93.41
54407;BME280;40313;50.308;30.374;2024-03-08T02:52:41;100163.97;;;0.14;93.62
54407;BME280;40313;50.308;30.374;2024-03-08T02:55:10;100173.38;;;0.13;91.76
54407;BME280;40313;50.308;30.374;2024-03-08T02:57:40;100164.84;;;0.10;91.46
54407;BME280;40313;50.308;30.374;2024-03-08T03:00:08;100167.41;;;0.10;90.02
54407;BME280;40313;50.308;30.374;2024-03-08T03:02:38;100184.47;;;0.22;90.16
54407;BME280;40313;50.308;30.374;2024-03-08T03:05:05;100170.88;;;-0.01;90.28
54407;BME280;40313;50.308;30.374;2024-03-08T03:07:32;100183.63;;;0.15;90.87
54407;BME280;40313;50.308;30.374;2024-03-08T03:09:59;100166.63;;;0.02;91.63
54407;BME280;40313;50.308;30.374;2024-03-08T03:12:28;100178.50;;;0.13;92.24
54407;BME280;40313;50.308;30.374;2024-03-08T03:14:55;100171.69;;;0.08;93.16
54407;BME280;40313;50.308;30.374;2024-03-08T03:17:24;100175.94;;;0.16;92.73
54407;BME280;40313;50.308;30.374;2024-03-08T03:19:51;100178.50;;;0.18;93.54
54407;BME280;40313;50.308;30.374;2024-03-08T03:22:18;100161.41;;;0.14;92.26
54407;BME280;40313;50.308;30.374;2024-03-08T03:24:44;100146.97;;;-0.03;92.23
54407;BME280;40313;50.308;30.374;2024-03-08T03:27:12;100157.16;;;0.05;91.63
54407;BME280;40313;50.308;30.374;2024-03-08T03:29:41;100160.59;;;0.03;91.58
54407;BME280;40313;50.308;30.374;2024-03-08T03:32:10;100164.00;;;0.09;92.51
54407;BME280;40313;50.308;30.374;2024-03-08T03:34:37;100167.44;;;0.05;92.50
54407;BME280;40313;50.308;30.374;2024-03-08T03:37:04;100138.50;;;-0.19;94.28
54407;BME280;40313;50.308;30.374;2024-03-08T03:39:32;100138.41;;;-0.06;92.81
54407;BME280;40313;50.308;30.374;2024-03-08T03:41:59;100148.66;;;0.00;91.86
54407;BME280;40313;50.308;30.374;2024-03-08T03:44:27;100140.09;;;-0.02;91.89
54407;BME280;40313;50.308;30.374;2024-03-08T03:46:55;100163.16;;;0.07;92.84
54407;BME280;40313;50.308;30.374;2024-03-08T03:49:21;100163.16;;;0.10;92.66
54407;BME280;40313;50.308;30.374;2024-03-08T03:51:49;100157.13;;;0.11;92.55
54407;BME280;40313;50.308;30.374;2024-03-08T03:54:15;100154.59;;;0.13;91.02
54407;BME280;40313;50.308;30.374;2024-03-08T03:56:42;100165.72;;;0.10;91.91
54407;BME280;40313;50.308;30.374;2024-03-08T03:59:08;100159.69;;;0.16;93.14
54407;BME280;40313;50.308;30.374;2024-03-08T04:01:35;100163.00;;;0.37;92.15
54407;BME280;40313;50.308;30.374;2024-03-08T04:04:03;100126.34;;;0.17;91.86
54407;BME280;40313;50.308;30.374;2024-03-08T04:06:30;100168.25;;;0.13;92.10
54407;BME280;40313;50.308;30.374;2024-03-08T04:08:56;100167.41;;;0.08;94.21
54407;BME280;40313;50.308;30.374;2024-03-08T04:11:26;100164.03;;;0.06;93.62
54407;BME280;40313;50.308;30.374;2024-03-08T04:13:53;100135.84;;;-0.06;93.27
54407;BME280;40313;50.308;30.374;2024-03-08T04:16:20;100118.78;;;-0.10;91.66
54407;BME280;40313;50.308;30.374;2024-03-08T04:18:46;100137.53;;;0.01;89.98
54407;BME280;40313;50.308;30.374;2024-03-08T04:21:15;100160.56;;;0.13;89.43
54407;BME280;40313;50.308;30.374;2024-03-08T04:23:42;100153.75;;;0.08;89.71
54407;BME280;40313;50.308;30.374;2024-03-08T04:26:10;100120.50;;;-0.14;89.78
54407;BME280;40313;50.308;30.374;2024-03-08T04:28:37;100131.59;;;-0.10;91.90
54407;BME280;40313;50.308;30.374;2024-03-08T04:31:05;100153.72;;;0.12;92.28
54407;BME280;40313;50.308;30.374;2024-03-08T04:33:32;100152.84;;;0.15;92.10
54407;BME280;40313;50.308;30.374;2024-03-08T04:36:00;100144.34;;;0.04;92.47
54407;BME280;40313;50.308;30.374;2024-03-08T04:38:30;100119.63;;;-0.08;93.47
54407;BME280;40313;50.308;30.374;2024-03-08T04:40:57;100156.22;;;0.25;93.02
54407;BME280;40313;50.308;30.374;2024-03-08T04:43:25;100147.63;;;0.33;91.60
54407;BME280;40313;50.308;30.374;2024-03-08T04:45:52;100131.41;;;0.25;90.62
54407;BME280;40313;50.308;30.374;2024-03-08T04:48:19;100143.28;;;0.37;89.86
54407;BME280;40313;50.308;30.374;2024-03-08T04:50:45;100142.44;;;0.38;90.33
54407;BME280;40313;50.308;30.374;2024-03-08T04:53:12;100112.50;;;0.36;90.54
54407;BME280;40313;50.308;30.374;2024-03-08T04:55:40;100147.47;;;0.55;92.40
54407;BME280;40313;50.308;30.374;2024-03-08T04:58:07;100134.59;;;0.64;92.38
54407;BME280;40313;50.308;30.374;2024-03-08T05:00:33;100134.41;;;0.81;92.43
54407;BME280;40313;50.308;30.374;2024-03-08T05:03:00;100114.69;;;0.86;91.00
54407;BME280;40313;50.308;30.374;2024-03-08T05:05:27;100101.56;;;1.14;90.46
54407;BME280;40313;50.308;30.374;2024-03-08T05:07:54;100143.84;;;1.68;89.32
54407;BME280;40313;50.308;30.374;2024-03-08T05:10:21;100136.97;;;1.68;88.86
54407;BME280;40313;50.308;30.374;2024-03-08T05:12:49;100146.50;;;1.62;88.66
54407;BME280;40313;50.308;30.374;2024-03-08T05:15:15;100106.44;;;1.42;89.03
54407;BME280;40313;50.308;30.374;2024-03-08T05:17:42;100143.69;;;1.82;88.57
54407;BME280;40313;50.308;30.374;2024-03-08T05:20:10;100138.56;;;1.77;89.78
54407;BME280;40313;50.308;30.374;2024-03-08T05:22:38;100124.09;;;2.34;88.35
54407;BME280;40313;50.308;30.374;2024-03-08T05:25:06;100143.75;;;2.96;86.11
54407;BME280;40313;50.308;30.374;2024-03-08T05:27:33;100107.28;;;3.62;83.84
54407;BME280;40313;50.308;30.374;2024-03-08T05:30:01;100124.47;;;4.43;81.16
54407;BME280;40313;50.308;30.374;2024-03-08T05:32:29;100120.72;;;4.19;80.21
54407;BME280;40313;50.308;30.374;2024-03-08T05:34:55;100142.75;;;3.95;80.34
54407;BME280;40313;50.308;30.374;2024-03-08T05:37:22;100127.88;;;4.06;80.25
54407;BME280;40313;50.308;30.374;2024-03-08T05:39:49;100119.50;;;4.34;79.31
54407;BME280;40313;50.308;30.374;2024-03-08T05:42:15;100136.84;;;5.67;77.35
54407;BME280;40313;50.308;30.374;2024-03-08T05:44:42;100119.66;;;7.04;73.58
54407;BME280;40313;50.308;30.374;2024-03-08T05:47:10;100089.69;;;8.60;68.31
54407;BME280;40313;50.308;30.374;2024-03-08T05:49:36;100093.88;;;10.77;63.17
54407;BME280;40313;50.308;30.374;2024-03-08T05:52:04;100090.72;;;12.96;58.72
54407;BME280;40313;50.308;30.374;2024-03-08T05:54:31;100100.00;;;14.17;53.84
54407;BME280;40313;50.308;30.374;2024-03-08T05:56:58;100082.03;;;14.92;50.63
54407;BME280;40313;50.308;30.374;2024-03-08T05:59:25;100110.63;;;13.73;50.49
54407;BME280;40313;50.308;30.374;2024-03-08T06:01:52;100122.06;;;11.72;53.65
54407;BME280;40313;50.308;30.374;2024-03-08T06:04:20;100091.66;;;9.16;56.22
54407;BME280;40313;50.308;30.374;2024-03-08T06:06:46;100121.81;;;7.91;59.66
54407;BME280;40313;50.308;30.374;2024-03-08T06:09:13;100101.13;;;6.90;62.59
54407;BME280;40313;50.308;30.374;2024-03-08T06:11:42;100129.31;;;7.01;65.40
54407;BME280;40313;50.308;30.374;2024-03-08T06:14:09;100135.16;;;7.07;66.33
54407;BME280;40313;50.308;30.374;2024-03-08T06:16:36;100100.25;;;6.64;67.13
54407;BME280;40313;50.308;30.374;2024-03-08T06:19:03;100135.19;;;6.52;69.15
54407;BME280;40313;50.308;30.374;2024-03-08T06:21:32;100090.44;;;6.74;70.02
54407;BME280;40313;50.308;30.374;2024-03-08T06:23:59;100118.06;;;7.74;68.27
54407;BME280;40313;50.308;30.374;2024-03-08T06:26:25;100124.78;;;7.07;69.15
54407;BME280;40313;50.308;30.374;2024-03-08T06:28:53;100136.22;;;7.02;70.04
54407;BME280;40313;50.308;30.374;2024-03-08T06:31:20;100124.69;;;6.57;70.01
54407;BME280;40313;50.308;30.374;2024-03-08T06:33:47;100118.25;;;6.14;71.76
54407;BME280;40313;50.308;30.374;2024-03-08T06:36:16;100113.59;;;6.53;72.12
54407;BME280;40313;50.308;30.374;2024-03-08T06:38:45;100081.09;;;6.15;73.02
54407;BME280;40313;50.308;30.374;2024-03-08T06:41:12;100108.59;;;6.19;71.92
54407;BME280;40313;50.308;30.374;2024-03-08T06:43:41;100102.94;;;6.34;73.21
54407;BME280;40313;50.308;30.374;2024-03-08T06:46:08;100084.31;;;5.93;73.42
54407;BME280;40313;50.308;30.374;2024-03-08T06:48:34;100112.34;;;6.37;73.20
54407;BME280;40313;50.308;30.374;2024-03-08T06:51:02;100119.50;;;6.57;74.75
54407;BME280;40313;50.308;30.374;2024-03-08T06:53:29;100121.78;;;6.39;74.36
54407;BME280;40313;50.308;30.374;2024-03-08T06:55:57;100103.03;;;6.03;74.62
54407;BME280;40313;50.308;30.374;2024-03-08T06:58:24;100117.59;;;6.35;74.86
54407;BME280;40313;50.308;30.374;2024-03-08T07:00:51;100100.97;;;6.14;74.93
54407;BME280;40313;50.308;30.374;2024-03-08T07:03:18;100104.88;;;6.56;75.39
54407;BME280;40313;50.308;30.374;2024-03-08T07:05:47;100077.78;;;6.38;74.78
54407;BME280;40313;50.308;30.374;2024-03-08T07:08:14;100113.53;;;6.82;75.60
54407;BME280;40313;50.308;30.374;2024-03-08T07:10:41;100095.94;;;6.90;76.19
54407;BME280;40313;50.308;30.374;2024-03-08T07:13:11;100110.69;;;7.15;75.94
54407;BME280;40313;50.308;30.374;2024-03-08T07:15:38;100083.34;;;7.04;75.60
54407;BME280;40313;50.308;30.374;2024-03-08T07:18:05;100083.69;;;6.95;74.94
54407;BME280;40313;50.308;30.374;2024-03-08T07:20:34;100088.81;;;7.22;74.16
54407;BME280;40313;50.308;30.374;2024-03-08T07:23:02;100114.06;;;7.17;73.55
54407;BME280;40313;50.308;30.374;2024-03-08T07:25:29;100100.69;;;7.29;72.89
54407;BME280;40313;50.308;30.374;2024-03-08T07:27:56;100073.38;;;7.42;74.85
54407;BME280;40313;50.308;30.374;2024-03-08T07:30:25;100094.03;;;7.69;75.12
54407;BME280;40313;50.308;30.374;2024-03-08T07:33:21;100112.78;;;7.77;71.76
54407;BME280;40313;50.308;30.374;2024-03-08T07:35:48;100084.22;;;7.77;72.20
54407;BME280;40313;50.308;30.374;2024-03-08T07:38:15;100103.34;;;7.51;70.73
54407;BME280;40313;50.308;30.374;2024-03-08T07:40:42;100098.47;;;7.66;69.82
54407;BME280;40313;50.308;30.374;2024-03-08T07:43:10;100102.84;;;7.89;69.31
54407;BME280;40313;50.308;30.374;2024-03-08T07:45:38;100072.13;;;7.99;69.44
54407;BME280;40313;50.308;30.374;2024-03-08T07:48:06;100072.75;;;8.05;71.03
54407;BME280;40313;50.308;30.374;2024-03-08T07:50:46;100066.50;;;7.65;67.99
54407;BME280;40313;50.308;30.374;2024-03-08T07:53:23;100079.16;;;8.19;68.82
54407;BME280;40313;50.308;30.374;2024-03-08T07:55:50;100060.41;;;8.33;67.74
54407;BME280;40313;50.308;30.374;2024-03-08T07:58:19;100069.28;;;8.51;69.37
54407;BME280;40313;50.308;30.374;2024-03-08T08:00:47;100059.22;;;8.19;67.46
54407;BME280;40313;50.308;30.374;2024-03-08T08:03:14;100049.91;;;8.36;65.14
54407;BME280;40313;50.308;30.374;2024-03-08T08:05:41;100081.13;;;8.58;64.25
54407;BME280;40313;50.308;30.374;2024-03-08T08:08:08;100083.38;;;8.65;63.06
54407;BME280;40313;50.308;30.374;2024-03-08T08:10:35;100079.94;;;8.86;62.57
54407;BME280;40313;50.308;30.374;2024-03-08T08:13:02;100093.78;;;8.65;61.64
54407;BME280;40313;50.308;30.374;2024-03-08T08:15:29;100086.09;;;8.85;62.18
54407;BME280;40313;50.308;30.374;2024-03-08T08:17:57;100061.34;;;8.74;61.15
54407;BME280;40313;50.308;30.374;2024-03-08T08:20:24;100055.97;;;8.79;61.34
54407;BME280;40313;50.308;30.374;2024-03-08T08:22:51;100062.28;;;8.73;61.25
54407;BME280;40313;50.308;30.374;2024-03-08T08:25:19;100071.16;;;9.48;60.85
54407;BME280;40313;50.308;30.374;2024-03-08T08:27:48;100059.69;;;9.52;61.32
54407;BME280;40313;50.308;30.374;2024-03-08T08:30:15;100070.19;;;9.51;60.01
54407;BME280;40313;50.308;30.374;2024-03-08T08:32:41;100075.75;;;9.43;56.77
54407;BME280;40313;50.308;30.374;2024-03-08T08:35:12;100054.44;;;9.14;57.36
54407;BME280;40313;50.308;30.374;2024-03-08T08:37:38;100028.88;;;9.43;55.51
54407;BME280;40313;50.308;30.374;2024-03-08T08:40:06;100061.69;;;9.47;54.77
54407;BME280;40313;50.308;30.374;2024-03-08T08:42:36;100030.13;;;9.92;54.44
54407;BME280;40313;50.308;30.374;2024-03-08T08:45:03;100048.56;;;10.06;54.71
54407;BME280;40313;50.308;30.374;2024-03-08T08:47:33;100034.78;;;9.47;53.29
54407;BME280;40313;50.308;30.374;2024-03-08T08:50:00;100026.75;;;9.90;53.95
54407;BME280;40313;50.308;30.374;2024-03-08T08:52:28;100055.97;;;9.96;51.11
54407;BME280;40313;50.308;30.374;2024-03-08T08:54:55;100036.38;;;10.07;51.59
54407;BME280;40313;50.308;30.374;2024-03-08T08:57:22;100018.88;;;9.34;50.71
54407;BME280;40313;50.308;30.374;2024-03-08T08:59:49;100026.72;;;9.53;51.05
54407;BME280;40313;50.308;30.374;2024-03-08T09:02:15;100048.72;;;9.84;50.16
54407;BME280;40313;50.308;30.374;2024-03-08T09:04:46;100018.38;;;10.19;51.40
54407;BME280;40313;50.308;30.374;2024-03-08T09:07:13;100016.41;;;10.25;51.19
54407;BME280;40313;50.308;30.374;2024-03-08T09:09:41;100032.16;;;10.21;50.67
54407;BME280;40313;50.308;30.374;2024-03-08T09:12:08;100019.44;;;10.33;50.73
54407;BME280;40313;50.308;30.374;2024-03-08T09:14:37;100033.97;;;10.38;51.46
54407;BME280;40313;50.308;30.374;2024-03-08T09:17:04;100033.56;;;9.92;51.19
54407;BME280;40313;50.308;30.374;2024-03-08T09:19:31;99998.06;;;9.90;50.58
54407;BME280;40313;50.308;30.374;2024-03-08T09:21:58;100027.88;;;10.75;50.47
54407;BME280;40313;50.308;30.374;2024-03-08T09:24:25;100017.53;;;9.44;48.53
54407;BME280;40313;50.308;30.374;2024-03-08T09:26:53;99983.44;;;9.87;48.85
54407;BME280;40313;50.308;30.374;2024-03-08T09:29:19;100024.81;;;10.12;48.73
54407;BME280;40313;50.308;30.374;2024-03-08T09:31:46;99995.22;;;10.13;48.88
54407;BME280;40313;50.308;30.374;2024-03-08T09:34:13;99991.69;;;10.84;49.90
54407;BME280;40313;50.308;30.374;2024-03-08T09:36:39;99996.13;;;10.30;47.52
54407;BME280;40313;50.308;30.374;2024-03-08T09:39:06;100006.16;;;10.02;48.73
54407;BME280;40313;50.308;30.374;2024-03-08T09:41:33;99991.56;;;9.43;50.14
54407;BME280;40313;50.308;30.374;2024-03-08T09:44:01;100017.19;;;10.44;50.84
54407;BME280;40313;50.308;30.374;2024-03-08T09:46:30;100015.00;;;10.17;51.20
54407;BME280;40313;50.308;30.374;2024-03-08T09:48:57;100023.94;;;10.48;49.75
54407;BME280;40313;50.308;30.374;2024-03-08T09:51:27;100002.91;;;10.51;50.03
54407;BME280;40313;50.308;30.374;2024-03-08T09:53:54;100006.91;;;10.41;49.11
54407;BME280;40313;50.308;30.374;2024-03-08T09:56:22;100001.53;;;10.79;48.66
54407;BME280;40313;50.308;30.374;2024-03-08T09:58:49;100013.25;;;11.21;49.71
54407;BME280;40313;50.308;30.374;2024-03-08T10:01:46;99966.22;;;11.05;48.85
54407;BME280;40313;50.308;30.374;2024-03-08T10:04:13;100005.75;;;10.82;49.77
54407;BME280;40313;50.308;30.374;2024-03-08T10:06:39;100006.84;;;10.78;49.21
54407;BME280;40313;50.308;30.374;2024-03-08T10:09:06;99987.13;;;10.54;48.95
54407;BME280;40313;50.308;30.374;2024-03-08T10:11:33;100010.03;;;10.30;49.37
54407;BME280;40313;50.308;30.374;2024-03-08T10:14:00;99980.06;;;11.07;48.50
54407;BME280;40313;50.308;30.374;2024-03-08T10:16:27;99966.69;;;10.80;49.03
54407;BME280;40313;50.308;30.374;2024-03-08T10:18:56;100004.09;;;10.97;48.92
54407;BME280;40313;50.308;30.374;2024-03-08T10:21:22;99968.94;;;10.53;48.83
54407;BME280;40313;50.308;30.374;2024-03-08T10:23:50;99988.72;;;11.57;48.55
54407;BME280;40313;50.308;30.374;2024-03-08T10:26:18;99958.00;;;11.77;47.87
54407;BME280;40313;50.308;30.374;2024-03-08T10:28:46;99954.97;;;11.37;47.25
54407;BME280;40313;50.308;30.374;2024-03-08T10:31:13;99967.84;;;10.75;46.36
54407;BME280;40313;50.308;30.374;2024-03-08T10:33:40;99977.38;;;11.73;46.20
54407;BME280;40313;50.308;30.374;2024-03-08T10:36:09;99978.53;;;11.03;46.51
54407;BME280;40313;50.308;30.374;2024-03-08T10:38:36;99968.72;;;11.56;46.89
54407;BME280;40313;50.308;30.374;2024-03-08T10:41:04;99935.16;;;11.81;45.66
54407;BME280;40313;50.308;30.374;2024-03-08T10:43:42;99923.09;;;11.94;45.01
54407;BME280;40313;50.308;30.374;2024-03-08T10:46:16;99962.28;;;12.40;45.77
54407;BME280;40313;50.308;30.374;2024-03-08T10:48:49;99932.59;;;12.25;45.11
54407;BME280;40313;50.308;30.374;2024-03-08T10:51:19;99920.88;;;12.02;45.67
54407;BME280;40313;50.308;30.374;2024-03-08T10:53:46;99951.78;;;12.10;45.40
54407;BME280;40313;50.308;30.374;2024-03-08T10:56:14;99947.19;;;11.99;44.70
54407;BME280;40313;50.308;30.374;2024-03-08T10:58:41;99925.03;;;12.21;44.36
54407;BME280;40313;50.308;30.374;2024-03-08T11:01:10;99906.75;;;12.35;44.43
54407;BME280;40313;50.308;30.374;2024-03-08T11:03:47;99926.00;;;12.04;44.40
54407;BME280;40313;50.308;30.374;2024-03-08T11:06:23;99934.53;;;12.07;45.93
54407;BME280;40313;50.308;30.374;2024-03-08T11:08:55;99899.19;;;12.45;45.00
54407;BME280;40313;50.308;30.374;2024-03-08T11:11:27;99926.41;;;12.86;45.21
54407;BME280;40313;50.308;30.374;2024-03-08T11:13:55;99918.66;;;12.70;44.27
54407;BME280;40313;50.308;30.374;2024-03-08T11:16:39;99883.94;;;12.37;43.72
54407;BME280;40313;50.308;30.374;2024-03-08T11:19:26;99926.03;;;13.06;44.08
54407;BME280;40313;50.308;30.374;2024-03-08T11:22:04;99912.28;;;12.88;44.01
54407;BME280;40313;50.308;30.374;2024-03-08T11:24:39;99883.59;;;12.72;44.31
54407;BME280;40313;50.308;30.374;2024-03-08T11:27:07;99885.72;;;12.37;43.34
54407;BME280;40313;50.308;30.374;2024-03-08T11:29:38;99882.00;;;12.84;43.26
54407;BME280;40313;50.308;30.374;2024-03-08T11:32:08;99913.41;;;12.41;43.11
54407;BME280;40313;50.308;30.374;2024-03-08T11:34:35;99863.47;;;12.15;43.11
54407;BME280;40313;50.308;30.374;2024-03-08T11:37:05;99902.91;;;13.13;43.40
54407;BME280;40313;50.308;30.374;2024-03-08T11:39:35;99868.72;;;12.44;42.88
54407;BME280;40313;50.308;30.374;2024-03-08T11:42:03;99893.28;;;12.27;43.19
54407;BME280;40313;50.308;30.374;2024-03-08T11:44:30;99852.56;;;12.81;42.67
54407;BME280;40313;50.308;30.374;2024-03-08T11:46:57;99881.34;;;12.81;42.38
54407;BME280;40313;50.308;30.374;2024-03-08T11:49:23;99849.41;;;13.03;42.22
54407;BME280;40313;50.308;30.374;2024-03-08T11:51:52;99871.53;;;13.26;43.14
54407;BME280;40313;50.308;30.374;2024-03-08T11:54:20;99848.03;;;13.24;41.38
54407;BME280;40313;50.308;30.374;2024-03-08T11:56:48;99848.56;;;13.44;42.22
54407;BME280;40313;50.308;30.374;2024-03-08T11:59:17;99877.09;;;13.48;41.33
54407;BME280;40313;50.308;30.374;2024-03-08T12:01:59;99876.13;;;13.37;41.32
54407;BME280;40313;50.308;30.374;2024-03-08T12:04:27;99864.97;;;12.77;40.77
54407;BME280;40313;50.308;30.374;2024-03-08T12:06:53;99844.44;;;12.71;40.91
54407;BME280;40313;50.308;30.374;2024-03-08T12:09:21;99837.91;;;13.05;40.98
54407;BME280;40313;50.308;30.374;2024-03-08T12:11:48;99869.59;;;13.15;40.68
54407;BME280;40313;50.308;30.374;2024-03-08T12:14:19;99871.81;;;13.36;40.34
54407;BME280;40313;50.308;30.374;2024-03-08T12:16:46;99866.09;;;13.43;39.93
54407;BME280;40313;50.308;30.374;2024-03-08T12:19:14;99817.75;;;13.35;40.27
54407;BME280;40313;50.308;30.374;2024-03-08T12:21:41;99824.94;;;13.71;40.99
54407;BME280;40313;50.308;30.374;2024-03-08T12:24:16;99859.84;;;14.12;40.62
54407;BME280;40313;50.308;30.374;2024-03-08T12:26:46;99840.91;;;13.41;39.95
54407;BME280;40313;50.308;30.374;2024-03-08T12:29:15;99859.09;;;12.73;40.08
54407;BME280;40313;50.308;30.374;2024-03-08T12:31:42;99816.28;;;13.02;39.88
54407;BME280;40313;50.308;30.374;2024-03-08T12:34:09;99799.44;;;13.47;39.31
54407;BME280;40313;50.308;30.374;2024-03-08T12:36:36;99805.78;;;13.71;39.94
54407;BME280;40313;50.308;30.374;2024-03-08T12:39:02;99819.66;;;13.45;39.94
54407;BME280;40313;50.308;30.374;2024-03-08T12:41:29;99816.09;;;13.46;38.97
54407;BME280;40313;50.308;30.374;2024-03-08T12:43:59;99840.19;;;13.52;39.80
54407;BME280;40313;50.308;30.374;2024-03-08T12:46:25;99806.09;;;13.66;39.36
54407;BME280;40313;50.308;30.374;2024-03-08T12:48:52;99799.78;;;13.69;38.86
54407;BME280;40313;50.308;30.374;2024-03-08T12:51:20;99781.94;;;13.48;39.37